Accueil
METAR-TAF:

METAR-TAF

Aéroports :

Caen, France

Aéroport de Caen - Carpiquet

latitude: 49-11N, longitude: 000-27W, altitude: 78 m

Observation

Le bulletin a été fait il y a 20 minutes, à 09:00 UTC
Vent 12 kt de ouest/nord-ouest
Température 18°C
Humidité 68%
Pression 1021 hPa
Visibilité 10 km ou plus
Nuages fragmentés à une hauteur de 2800 ft
Nuages fragmentés à une hauteur de 3800 ft
Nuages fragmentés à une hauteur de 5000 ft

METAR: LFRK 190900Z AUTO 29012KT 9999 BKN028 BKN038 BKN050 18/12 Q1021 NOSIG

Heure: 11:20 (09:20 UTC)

Prévision

Le bulletin a été fait il y a 1 heure et 20 minutes, à 08:00 UTC
Prévision valable du 19 à 09 UTC au 19 à 18 UTC
Vent 10 kt de ouest
Visibilité 10 km ou plus
Nuages épars à une hauteur de 3000 ft
Temporairement
du 19 à 14 UTC au 19 à 18 UTC
Vent 15 kt de ouest/nord-ouest avec des rafales jusqu'à 25 kt

TAF: LFRK 190800Z 1909/1918 28010KT 9999 SCT030 TEMPO 1914/1918 29015G25KT

Observations et prévisions météorologiques de plus de 4000 aéroports (messages METAR et TAF).

Les stations disponibles sont représentées par des disques jaunes et rouges sur la carte.

Passer la souris dessus pour voir le nom de la station.

Cliquer dessus pour voir les observations et prévisions météorologiques.

Pour changer de carte: cliquez sur les boutons verts avec une croix noire pour zoomer, sur le bouton vert avec un tiret pour effectuer un zoom arrière, ou sur les flèches vertes pour les cartes adjacentes.


METAR-TAF: